sensor_id;sensor_type;location;lat;lon;timestamp;pressure;altitude;pressure_sealevel;temperature;humidity
39823;BME280;25499;53.958;10.970;2023-04-24T05:32:42;99818.44;;;10.46;100.00
39823;BME280;25499;53.958;10.970;2023-04-24T05:35:10;99814.06;;;10.48;100.00
39823;BME280;25499;53.958;10.970;2023-04-24T05:37:38;99814.84;;;10.53;100.00
39823;BME280;25499;53.958;10.970;2023-04-24T05:40:06;99825.97;;;10.61;100.00
39823;BME280;25499;53.958;10.970;2023-04-24T05:42:32;99819.00;;;10.62;100.00
39823;BME280;25499;53.958;10.970;2023-04-24T05:44:59;99818.00;;;10.69;100.00
39823;BME280;25499;53.958;10.970;2023-04-24T05:47:26;99819.50;;;10.81;100.00
39823;BME280;25499;53.958;10.970;2023-04-24T05:49:56;99825.44;;;10.89;100.00
39823;BME280;25499;53.958;10.970;2023-04-24T05:52:23;99823.75;;;10.88;100.00
39823;BME280;25499;53.958;10.970;2023-04-24T05:54:50;99818.41;;;10.93;100.00
39823;BME280;25499;53.958;10.970;2023-04-24T05:57:17;99818.41;;;10.93;100.00
39823;BME280;25499;53.958;10.970;2023-04-24T05:59:43;99825.16;;;11.03;100.00
39823;BME280;25499;53.958;10.970;2023-04-24T06:02:11;99830.34;;;11.05;100.00
39823;BME280;25499;53.958;10.970;2023-04-24T06:04:38;99826.94;;;11.01;100.00
39823;BME280;25499;53.958;10.970;2023-04-24T06:07:06;99822.47;;;11.08;100.00
39823;BME280;25499;53.958;10.970;2023-04-24T06:09:33;99819.69;;;11.17;100.00
39823;BME280;25499;53.958;10.970;2023-04-24T06:12:00;99819.88;;;11.48;100.00
39823;BME280;25499;53.958;10.970;2023-04-24T06:14:28;99816.25;;;11.55;100.00
39823;BME280;25499;53.958;10.970;2023-04-24T06:16:54;99818.72;;;11.62;100.00
39823;BME280;25499;53.958;10.970;2023-04-24T06:19:21;99818.47;;;11.72;100.00
39823;BME280;25499;53.958;10.970;2023-04-24T06:21:48;99821.66;;;11.85;100.00
39823;BME280;25499;53.958;10.970;2023-04-24T06:24:16;99820.84;;;11.83;99.51
39823;BME280;25499;53.958;10.970;2023-04-24T06:26:43;99826.78;;;11.90;98.17
39823;BME280;25499;53.958;10.970;2023-04-24T06:29:10;99825.84;;;11.92;96.69
39823;BME280;25499;53.958;10.970;2023-04-24T06:31:37;99821.03;;;11.74;96.45
39823;BME280;25499;53.958;10.970;2023-04-24T06:34:04;99823.94;;;12.01;96.68
39823;BME280;25499;53.958;10.970;2023-04-24T06:36:33;99835.34;;;11.97;97.88
39823;BME280;25499;53.958;10.970;2023-04-24T06:39:01;99813.50;;;12.01;94.28
39823;BME280;25499;53.958;10.970;2023-04-24T06:41:29;99819.31;;;12.12;94.10
39823;BME280;25499;53.958;10.970;2023-04-24T06:43:56;99821.53;;;12.27;93.62
39823;BME280;25499;53.958;10.970;2023-04-24T06:46:23;99802.91;;;12.41;91.32
39823;BME280;25499;53.958;10.970;2023-04-24T06:48:52;99809.16;;;12.36;90.29
39823;BME280;25499;53.958;10.970;2023-04-24T06:51:21;99810.75;;;12.41;89.02
39823;BME280;25499;53.958;10.970;2023-04-24T06:53:48;99807.75;;;12.55;89.55
39823;BME280;25499;53.958;10.970;2023-04-24T06:56:15;99813.09;;;12.83;88.79
39823;BME280;25499;53.958;10.970;2023-04-24T06:58:43;99780.44;;;12.68;85.47
39823;BME280;25499;53.958;10.970;2023-04-24T07:01:10;99789.59;;;13.13;86.14
39823;BME280;25499;53.958;10.970;2023-04-24T07:03:37;99772.06;;;13.17;84.01
39823;BME280;25499;53.958;10.970;2023-04-24T07:06:06;99775.22;;;13.28;84.20
39823;BME280;25499;53.958;10.970;2023-04-24T07:08:33;99775.69;;;13.13;83.83
39823;BME280;25499;53.958;10.970;2023-04-24T07:11:01;99774.69;;;13.17;83.14
39823;BME280;25499;53.958;10.970;2023-04-24T07:13:28;99773.50;;;13.27;82.41
39823;BME280;25499;53.958;10.970;2023-04-24T07:15:56;99762.81;;;13.65;82.34
39823;BME280;25499;53.958;10.970;2023-04-24T07:18:24;99748.09;;;13.89;80.53
39823;BME280;25499;53.958;10.970;2023-04-24T07:20:50;99750.78;;;14.12;79.10
39823;BME280;25499;53.958;10.970;2023-04-24T07:23:19;99753.53;;;14.34;78.81
39823;BME280;25499;53.958;10.970;2023-04-24T07:25:46;99716.81;;;13.84;76.41
39823;BME280;25499;53.958;10.970;2023-04-24T07:28:13;99758.78;;;14.08;78.33
39823;BME280;25499;53.958;10.970;2023-04-24T07:30:40;99752.69;;;14.07;78.10
39823;BME280;25499;53.958;10.970;2023-04-24T07:33:08;99722.09;;;13.83;76.44
39823;BME280;25499;53.958;10.970;2023-04-24T07:35:36;99711.63;;;14.09;74.08
39823;BME280;25499;53.958;10.970;2023-04-24T07:38:03;99700.50;;;14.28;71.54
39823;BME280;25499;53.958;10.970;2023-04-24T07:40:30;99696.81;;;14.08;70.93
39823;BME280;25499;53.958;10.970;2023-04-24T07:42:56;99708.84;;;14.14;71.77
39823;BME280;25499;53.958;10.970;2023-04-24T07:45:23;99718.53;;;14.35;71.51
39823;BME280;25499;53.958;10.970;2023-04-24T07:47:52;99707.03;;;14.41;71.02
39823;BME280;25499;53.958;10.970;2023-04-24T07:50:20;99746.03;;;14.74;70.94
39823;BME280;25499;53.958;10.970;2023-04-24T07:52:47;99734.94;;;15.13;70.32
39823;BME280;25499;53.958;10.970;2023-04-24T07:55:14;99693.44;;;15.24;67.60
39823;BME280;25499;53.958;10.970;2023-04-24T07:57:41;99726.00;;;15.19;68.65
39823;BME280;25499;53.958;10.970;2023-04-24T08:00:14;99710.97;;;15.00;67.37
39823;BME280;25499;53.958;10.970;2023-04-24T08:02:41;99715.75;;;15.57;67.04
39823;BME280;25499;53.958;10.970;2023-04-24T08:05:09;99678.75;;;15.85;65.21
39823;BME280;25499;53.958;10.970;2023-04-24T08:07:37;99696.88;;;15.91;64.69
39823;BME280;25499;53.958;10.970;2023-04-24T08:10:05;99679.34;;;15.70;64.46
39823;BME280;25499;53.958;10.970;2023-04-24T08:12:32;99704.56;;;14.85;66.17
39823;BME280;25499;53.958;10.970;2023-04-24T08:14:59;99705.41;;;14.86;66.79
39823;BME280;25499;53.958;10.970;2023-04-24T08:17:26;99712.56;;;15.71;65.84
39823;BME280;25499;53.958;10.970;2023-04-24T08:19:53;99667.28;;;15.01;64.41
39823;BME280;25499;53.958;10.970;2023-04-24T08:22:26;99696.13;;;15.45;64.85
39823;BME280;25499;53.958;10.970;2023-04-24T08:24:56;99692.47;;;15.27;64.08
39823;BME280;25499;53.958;10.970;2023-04-24T08:27:23;99686.41;;;15.03;65.12
39823;BME280;25499;53.958;10.970;2023-04-24T08:29:50;99682.31;;;14.96;63.95
39823;BME280;25499;53.958;10.970;2023-04-24T08:32:19;99711.91;;;14.99;65.70
39823;BME280;25499;53.958;10.970;2023-04-24T08:34:46;99729.25;;;15.02;65.86
39823;BME280;25499;53.958;10.970;2023-04-24T08:37:13;99716.59;;;15.13;65.76
39823;BME280;25499;53.958;10.970;2023-04-24T08:39:40;99712.22;;;15.36;65.47
39823;BME280;25499;53.958;10.970;2023-04-24T08:42:08;99721.13;;;15.54;65.81
39823;BME280;25499;53.958;10.970;2023-04-24T08:44:36;99699.97;;;15.58;64.34
39823;BME280;25499;53.958;10.970;2023-04-24T08:47:02;99735.53;;;15.65;64.91
39823;BME280;25499;53.958;10.970;2023-04-24T08:49:29;99719.13;;;15.82;64.61
39823;BME280;25499;53.958;10.970;2023-04-24T08:51:57;99701.47;;;15.86;63.22
39823;BME280;25499;53.958;10.970;2023-04-24T08:54:25;99714.78;;;16.43;63.65
39823;BME280;25499;53.958;10.970;2023-04-24T08:56:53;99690.81;;;16.30;62.34
39823;BME280;25499;53.958;10.970;2023-04-24T08:59:24;99698.09;;;15.40;63.96
39823;BME280;25499;53.958;10.970;2023-04-24T09:01:51;99678.50;;;15.26;63.46
39823;BME280;25499;53.958;10.970;2023-04-24T09:04:21;99660.16;;;15.04;62.77
39823;BME280;25499;53.958;10.970;2023-04-24T09:06:50;99733.63;;;15.91;63.86
39823;BME280;25499;53.958;10.970;2023-04-24T09:09:18;99709.03;;;16.54;63.65
39823;BME280;25499;53.958;10.970;2023-04-24T09:11:45;99668.34;;;16.82;60.96
39823;BME280;25499;53.958;10.970;2023-04-24T09:14:13;99667.81;;;16.35;61.48
39823;BME280;25499;53.958;10.970;2023-04-24T09:16:41;99710.47;;;16.80;63.14
39823;BME280;25499;53.958;10.970;2023-04-24T09:19:09;99661.94;;;16.30;61.72
39823;BME280;25499;53.958;10.970;2023-04-24T09:21:36;99663.72;;;16.49;59.75
39823;BME280;25499;53.958;10.970;2023-04-24T09:24:04;99628.72;;;16.67;58.44
39823;BME280;25499;53.958;10.970;2023-04-24T09:26:35;99686.19;;;17.32;60.49
39823;BME280;25499;53.958;10.970;2023-04-24T09:29:03;99670.03;;;16.84;59.57
39823;BME280;25499;53.958;10.970;2023-04-24T09:31:30;99610.06;;;16.73;57.90
39823;BME280;25499;53.958;10.970;2023-04-24T09:34:00;99656.97;;;17.73;57.88
39823;BME280;25499;53.958;10.970;2023-04-24T09:36:29;99611.81;;;17.98;56.10
39823;BME280;25499;53.958;10.970;2023-04-24T09:38:59;99621.75;;;18.26;56.21
39823;BME280;25499;53.958;10.970;2023-04-24T09:41:26;99671.91;;;17.73;56.97
39823;BME280;25499;53.958;10.970;2023-04-24T09:43:54;99606.31;;;17.85;55.30
39823;BME280;25499;53.958;10.970;2023-04-24T09:46:29;99585.41;;;17.82;53.64
39823;BME280;25499;53.958;10.970;2023-04-24T09:48:57;99627.53;;;17.30;55.95
39823;BME280;25499;53.958;10.970;2023-04-24T09:51:35;99639.78;;;17.66;56.08
39823;BME280;25499;53.958;10.970;2023-04-24T09:54:03;99592.09;;;17.37;54.89
39823;BME280;25499;53.958;10.970;2023-04-24T09:56:32;99620.41;;;16.76;55.69
39823;BME280;25499;53.958;10.970;2023-04-24T09:59:05;99650.97;;;16.98;57.41
39823;BME280;25499;53.958;10.970;2023-04-24T10:01:33;99640.94;;;17.06;56.62
39823;BME280;25499;53.958;10.970;2023-04-24T10:04:02;99607.59;;;16.31;56.16
39823;BME280;25499;53.958;10.970;2023-04-24T10:06:33;99664.56;;;16.49;58.58
39823;BME280;25499;53.958;10.970;2023-04-24T10:09:02;99650.00;;;16.23;58.24
39823;BME280;25499;53.958;10.970;2023-04-24T10:11:29;99649.81;;;16.47;57.63
39823;BME280;25499;53.958;10.970;2023-04-24T10:13:56;99632.13;;;16.31;56.99
39823;BME280;25499;53.958;10.970;2023-04-24T10:16:24;99706.19;;;17.17;58.56
39823;BME280;25499;53.958;10.970;2023-04-24T10:18:52;99647.09;;;17.96;55.45
39823;BME280;25499;53.958;10.970;2023-04-24T10:21:20;99648.34;;;19.19;54.28
39823;BME280;25499;53.958;10.970;2023-04-24T10:23:48;99624.56;;;18.23;53.75
39823;BME280;25499;53.958;10.970;2023-04-24T10:26:16;99633.34;;;18.06;55.11
39823;BME280;25499;53.958;10.970;2023-04-24T10:28:45;99600.81;;;16.84;54.91
39823;BME280;25499;53.958;10.970;2023-04-24T10:31:13;99649.63;;;17.26;55.89
39823;BME280;25499;53.958;10.970;2023-04-24T10:33:40;99665.34;;;17.27;56.48
39823;BME280;25499;53.958;10.970;2023-04-24T10:36:10;99666.50;;;17.93;56.17
39823;BME280;25499;53.958;10.970;2023-04-24T10:38:41;99581.47;;;18.24;52.89
39823;BME280;25499;53.958;10.970;2023-04-24T10:41:10;99621.28;;;16.96;55.17
39823;BME280;25499;53.958;10.970;2023-04-24T10:43:41;99628.16;;;15.81;56.88
39823;BME280;25499;53.958;10.970;2023-04-24T10:46:09;99677.19;;;15.81;58.59
39823;BME280;25499;53.958;10.970;2023-04-24T10:48:42;99716.97;;;15.92;59.86
39823;BME280;25499;53.958;10.970;2023-04-24T10:51:11;99731.81;;;17.86;59.18
39823;BME280;25499;53.958;10.970;2023-04-24T10:53:39;99715.94;;;20.00;55.37
39823;BME280;25499;53.958;10.970;2023-04-24T10:56:07;99663.50;;;20.65;53.06
39823;BME280;25499;53.958;10.970;2023-04-24T10:58:40;99680.66;;;20.58;53.35
39823;BME280;25499;53.958;10.970;2023-04-24T11:01:23;99614.09;;;18.22;53.43
39823;BME280;25499;53.958;10.970;2023-04-24T11:03:50;99635.81;;;17.03;55.43
39823;BME280;25499;53.958;10.970;2023-04-24T11:06:28;99678.81;;;17.02;57.44
39823;BME280;25499;53.958;10.970;2023-04-24T11:09:03;99676.13;;;16.85;57.71
39823;BME280;25499;53.958;10.970;2023-04-24T11:11:30;99686.09;;;16.18;58.78
39823;BME280;25499;53.958;10.970;2023-04-24T11:14:03;99706.19;;;15.98;59.73
39823;BME280;25499;53.958;10.970;2023-04-24T11:16:33;99728.69;;;15.61;60.78
39823;BME280;25499;53.958;10.970;2023-04-24T11:19:03;99737.78;;;15.53;61.03
39823;BME280;25499;53.958;10.970;2023-04-24T11:21:41;99744.53;;;15.82;60.90
39823;BME280;25499;53.958;10.970;2023-04-24T11:24:38;99696.28;;;15.62;59.52
39823;BME280;25499;53.958;10.970;2023-04-24T11:27:06;99707.78;;;16.02;58.77
39823;BME280;25499;53.958;10.970;2023-04-24T11:29:44;99680.28;;;16.11;58.15
39823;BME280;25499;53.958;10.970;2023-04-24T11:32:18;99711.78;;;15.91;59.42
39823;BME280;25499;53.958;10.970;2023-04-24T11:34:46;99693.34;;;16.13;58.77
39823;BME280;25499;53.958;10.970;2023-04-24T11:37:13;99652.56;;;16.25;56.71
39823;BME280;25499;53.958;10.970;2023-04-24T11:39:42;99658.34;;;15.49;57.58
39823;BME280;25499;53.958;10.970;2023-04-24T11:42:10;99678.44;;;15.28;58.91
39823;BME280;25499;53.958;10.970;2023-04-24T11:44:36;99653.56;;;14.94;58.15
39823;BME280;25499;53.958;10.970;2023-04-24T11:47:04;99717.09;;;16.30;58.37
39823;BME280;25499;53.958;10.970;2023-04-24T11:49:32;99701.63;;;17.21;57.05
39823;BME280;25499;53.958;10.970;2023-04-24T11:52:00;99652.88;;;17.67;55.18
39823;BME280;25499;53.958;10.970;2023-04-24T11:54:27;99649.16;;;18.40;53.20
39823;BME280;25499;53.958;10.970;2023-04-24T11:56:55;99605.44;;;18.02;51.94
39823;BME280;25499;53.958;10.970;2023-04-24T11:59:22;99656.66;;;17.97;54.50
39823;BME280;25499;53.958;10.970;2023-04-24T12:01:49;99611.47;;;17.17;53.51
39823;BME280;25499;53.958;10.970;2023-04-24T12:04:17;99617.50;;;16.64;54.31
39823;BME280;25499;53.958;10.970;2023-04-24T12:07:02;99601.38;;;16.90;53.13
39823;BME280;25499;53.958;10.970;2023-04-24T12:09:40;99623.13;;;17.48;53.22
39823;BME280;25499;53.958;10.970;2023-04-24T12:12:10;99617.78;;;17.49;53.13
39823;BME280;25499;53.958;10.970;2023-04-24T12:14:43;99526.72;;;16.75;51.77
39823;BME280;25499;53.958;10.970;2023-04-24T12:17:10;99562.81;;;16.15;52.75
39823;BME280;25499;53.958;10.970;2023-04-24T12:19:37;99588.22;;;15.73;53.11
39823;BME280;25499;53.958;10.970;2023-04-24T12:22:05;99602.53;;;16.28;53.33
39823;BME280;25499;53.958;10.970;2023-04-24T12:24:32;99656.94;;;16.83;54.70
39823;BME280;25499;53.958;10.970;2023-04-24T12:26:59;99609.91;;;16.95;53.44
39823;BME280;25499;53.958;10.970;2023-04-24T12:29:28;99564.16;;;16.23;53.00
39823;BME280;25499;53.958;10.970;2023-04-24T12:31:55;99633.16;;;16.27;55.13
39823;BME280;25499;53.958;10.970;2023-04-24T12:34:24;99623.78;;;15.82;55.42
39823;BME280;25499;53.958;10.970;2023-04-24T12:36:51;99656.06;;;16.63;55.79
39823;BME280;25499;53.958;10.970;2023-04-24T12:39:19;99633.84;;;16.70;54.85
39823;BME280;25499;53.958;10.970;2023-04-24T12:41:54;99660.47;;;17.74;55.05
39823;BME280;25499;53.958;10.970;2023-04-24T12:44:30;99653.41;;;17.74;54.33
39823;BME280;25499;53.958;10.970;2023-04-24T12:46:57;99649.53;;;17.64;54.62
39823;BME280;25499;53.958;10.970;2023-04-24T12:49:24;99610.97;;;17.28;53.49
39823;BME280;25499;53.958;10.970;2023-04-24T12:51:51;99635.72;;;17.41;54.26
39823;BME280;25499;53.958;10.970;2023-04-24T12:54:18;99507.06;;;16.65;50.86
39823;BME280;25499;53.958;10.970;2023-04-24T12:56:46;99599.63;;;17.45;52.92
39823;BME280;25499;53.958;10.970;2023-04-24T12:59:13;99596.25;;;17.24;52.57
39823;BME280;25499;53.958;10.970;2023-04-24T13:01:42;99535.41;;;16.20;51.69
39823;BME280;25499;53.958;10.970;2023-04-24T13:04:09;99572.25;;;16.19;53.06
39823;BME280;25499;53.958;10.970;2023-04-24T13:06:36;99572.91;;;15.84;54.09
39823;BME280;25499;53.958;10.970;2023-04-24T13:09:03;99615.75;;;15.85;55.09
39823;BME280;25499;53.958;10.970;2023-04-24T13:11:30;99598.06;;;15.68;54.51
39823;BME280;25499;53.958;10.970;2023-04-24T13:13:57;99627.13;;;15.85;55.52
39823;BME280;25499;53.958;10.970;2023-04-24T13:16:23;99637.28;;;15.93;55.75
39823;BME280;25499;53.958;10.970;2023-04-24T13:18:52;99643.34;;;15.73;56.74
39823;BME280;25499;53.958;10.970;2023-04-24T13:21:18;99651.78;;;15.81;56.93
39823;BME280;25499;53.958;10.970;2023-04-24T13:23:45;99636.34;;;16.15;56.23
39823;BME280;25499;53.958;10.970;2023-04-24T13:26:12;99638.00;;;15.76;56.49
39823;BME280;25499;53.958;10.970;2023-04-24T13:28:38;99652.72;;;15.58;56.74
39823;BME280;25499;53.958;10.970;2023-04-24T13:31:05;99661.78;;;15.94;57.67
39823;BME280;25499;53.958;10.970;2023-04-24T13:33:32;99621.78;;;15.66;55.76
39823;BME280;25499;53.958;10.970;2023-04-24T13:36:00;99616.94;;;15.35;56.37
39823;BME280;25499;53.958;10.970;2023-04-24T13:38:27;99602.34;;;14.85;56.17
39823;BME280;25499;53.958;10.970;2023-04-24T13:40:54;99584.56;;;14.71;56.10
39823;BME280;25499;53.958;10.970;2023-04-24T13:43:21;99599.78;;;14.62;56.88
39823;BME280;25499;53.958;10.970;2023-04-24T13:45:48;99601.97;;;14.49;56.90
39823;BME280;25499;53.958;10.970;2023-04-24T13:48:15;99640.75;;;14.63;57.42
39823;BME280;25499;53.958;10.970;2023-04-24T13:50:42;99631.75;;;14.46;58.21
39823;BME280;25499;53.958;10.970;2023-04-24T13:53:10;99654.88;;;14.82;58.03
39823;BME280;25499;53.958;10.970;2023-04-24T13:55:37;99620.41;;;14.46;57.18
39823;BME280;25499;53.958;10.970;2023-04-24T13:58:04;99640.97;;;14.33;57.89
39823;BME280;25499;53.958;10.970;2023-04-24T14:00:32;99633.66;;;14.43;58.19
39823;BME280;25499;53.958;10.970;2023-04-24T14:02:58;99636.06;;;14.24;58.52
39823;BME280;25499;53.958;10.970;2023-04-24T14:05:27;99641.63;;;14.14;58.92
39823;BME280;25499;53.958;10.970;2023-04-24T14:07:54;99668.22;;;14.27;59.50
39823;BME280;25499;53.958;10.970;2023-04-24T14:10:23;99661.56;;;14.42;59.59
39823;BME280;25499;53.958;10.970;2023-04-24T14:12:50;99676.19;;;14.73;60.15
39823;BME280;25499;53.958;10.970;2023-04-24T14:15:17;99677.63;;;14.82;59.88
39823;BME280;25499;53.958;10.970;2023-04-24T14:17:44;99678.78;;;14.73;60.59
39823;BME280;25499;53.958;10.970;2023-04-24T14:20:12;99670.00;;;14.50;60.54
39823;BME280;25499;53.958;10.970;2023-04-24T14:22:38;99686.19;;;14.38;61.01
39823;BME280;25499;53.958;10.970;2023-04-24T14:25:06;99665.94;;;14.18;61.27
39823;BME280;25499;53.958;10.970;2023-04-24T14:27:34;99665.78;;;14.23;61.23
39823;BME280;25499;53.958;10.970;2023-04-24T14:30:01;99648.81;;;14.09;60.22
39823;BME280;25499;53.958;10.970;2023-04-24T14:32:28;99691.63;;;14.32;61.38
39823;BME280;25499;53.958;10.970;2023-04-24T14:34:55;99693.09;;;14.39;62.04
39823;BME280;25499;53.958;10.970;2023-04-24T14:37:22;99671.75;;;14.26;61.28
39823;BME280;25499;53.958;10.970;2023-04-24T14:39:48;99650.81;;;14.26;60.55
39823;BME280;25499;53.958;10.970;2023-04-24T14:42:15;99665.78;;;14.23;61.15
39823;BME280;25499;53.958;10.970;2023-04-24T14:44:45;99699.03;;;14.44;61.57
39823;BME280;25499;53.958;10.970;2023-04-24T14:47:13;99698.97;;;14.71;61.51
39823;BME280;25499;53.958;10.970;2023-04-24T14:49:40;99689.38;;;14.71;61.06
39823;BME280;25499;53.958;10.970;2023-04-24T14:52:08;99677.38;;;14.64;60.78
39823;BME280;25499;53.958;10.970;2023-04-24T14:54:35;99678.25;;;14.65;61.07
39823;BME280;25499;53.958;10.970;2023-04-24T14:57:02;99671.94;;;14.45;60.58
39823;BME280;25499;53.958;10.970;2023-04-24T14:59:29;99700.16;;;14.37;62.56
39823;BME280;25499;53.958;10.970;2023-04-24T15:01:58;99716.75;;;14.12;62.49
39823;BME280;25499;53.958;10.970;2023-04-24T15:04:25;99711.31;;;13.93;63.21
39823;BME280;25499;53.958;10.970;2023-04-24T15:06:52;99707.97;;;13.88;63.95
39823;BME280;25499;53.958;10.970;2023-04-24T15:09:19;99722.53;;;13.97;64.26
39823;BME280;25499;53.958;10.970;2023-04-24T15:11:46;99714.63;;;13.72;64.22
39823;BME280;25499;53.958;10.970;2023-04-24T15:14:13;99744.59;;;13.88;64.98
39823;BME280;25499;53.958;10.970;2023-04-24T15:16:46;99759.19;;;13.69;66.44
39823;BME280;25499;53.958;10.970;2023-04-24T15:19:14;99774.88;;;13.40;67.63
39823;BME280;25499;53.958;10.970;2023-04-24T15:21:40;99758.25;;;13.13;68.06
39823;BME280;25499;53.958;10.970;2023-04-24T15:24:08;99748.19;;;12.99;67.84
39823;BME280;25499;53.958;10.970;2023-04-24T15:26:35;99765.84;;;12.91;67.73
39823;BME280;25499;53.958;10.970;2023-04-24T15:29:02;99765.78;;;12.94;67.62
39823;BME280;25499;53.958;10.970;2023-04-24T15:31:29;99761.59;;;12.88;67.95
39823;BME280;25499;53.958;10.970;2023-04-24T15:33:56;99783.88;;;13.00;69.01
39823;BME280;25499;53.958;10.970;2023-04-24T15:36:24;99782.69;;;13.12;69.44
39823;BME280;25499;53.958;10.970;2023-04-24T15:38:51;99756.84;;;13.01;68.78
39823;BME280;25499;53.958;10.970;2023-04-24T15:41:18;99762.72;;;13.10;68.34
39823;BME280;25499;53.958;10.970;2023-04-24T15:43:44;99761.09;;;13.05;67.89
39823;BME280;25499;53.958;10.970;2023-04-24T15:46:11;99762.97;;;13.30;68.19
39823;BME280;25499;53.958;10.970;2023-04-24T15:48:38;99758.06;;;13.19;67.46
39823;BME280;25499;53.958;10.970;2023-04-24T15:51:07;99778.59;;;13.33;68.21
39823;BME280;25499;53.958;10.970;2023-04-24T15:53:35;99783.78;;;13.35;68.90
39823;BME280;25499;53.958;10.970;2023-04-24T15:56:02;99767.16;;;13.06;68.13
39823;BME280;25499;53.958;10.970;2023-04-24T15:58:29;99781.00;;;13.10;69.06
39823;BME280;25499;53.958;10.970;2023-04-24T16:00:56;99789.84;;;13.05;69.80
39823;BME280;25499;53.958;10.970;2023-04-24T16:03:22;99792.53;;;13.02;70.47
39823;BME280;25499;53.958;10.970;2023-04-24T16:05:49;99794.34;;;13.00;71.53
39823;BME280;25499;53.958;10.970;2023-04-24T16:08:16;99788.25;;;13.00;71.34
39823;BME280;25499;53.958;10.970;2023-04-24T16:10:44;99780.72;;;12.89;70.60
39823;BME280;25499;53.958;10.970;2023-04-24T16:13:11;99786.97;;;12.83;70.82
39823;BME280;25499;53.958;10.970;2023-04-24T16:15:38;99793.88;;;12.86;70.97
39823;BME280;25499;53.958;10.970;2023-04-24T16:18:05;99799.28;;;12.80;71.41
39823;BME280;25499;53.958;10.970;2023-04-24T16:20:32;99795.88;;;12.76;71.17
39823;BME280;25499;53.958;10.970;2023-04-24T16:22:59;99810.81;;;12.71;71.31
39823;BME280;25499;53.958;10.970;2023-04-24T16:25:27;99812.06;;;12.58;71.87
39823;BME280;25499;53.958;10.970;2023-04-24T16:27:55;99825.22;;;12.53;72.76
39823;BME280;25499;53.958;10.970;2023-04-24T16:30:22;99851.00;;;12.32;74.15
39823;BME280;25499;53.958;10.970;2023-04-24T16:32:48;99882.44;;;11.89;77.90
39823;BME280;25499;53.958;10.970;2023-04-24T16:35:15;99879.59;;;11.18;81.27
39823;BME280;25499;53.958;10.970;2023-04-24T16:37:42;99891.00;;;11.10;84.73
39823;BME280;25499;53.958;10.970;2023-04-24T16:40:09;99895.47;;;11.03;86.60
39823;BME280;25499;53.958;10.970;2023-04-24T16:42:37;99896.69;;;10.87;87.65
39823;BME280;25499;53.958;10.970;2023-04-24T16:45:06;99908.91;;;10.83;90.04
39823;BME280;25499;53.958;10.970;2023-04-24T16:47:34;99927.84;;;10.91;92.49
39823;BME280;25499;53.958;10.970;2023-04-24T16:50:01;99932.34;;;10.81;95.05
39823;BME280;25499;53.958;10.970;2023-04-24T16:52:28;99929.78;;;10.80;98.14
39823;BME280;25499;53.958;10.970;2023-04-24T16:54:55;99936.91;;;10.69;100.00
39823;BME280;25499;53.958;10.970;2023-04-24T16:57:21;99939.38;;;10.76;100.00
39823;BME280;25499;53.958;10.970;2023-04-24T16:59:48;99942.25;;;10.61;100.00
39823;BME280;25499;53.958;10.970;2023-04-24T17:02:17;99953.53;;;10.60;100.00
39823;BME280;25499;53.958;10.970;2023-04-24T17:04:43;99957.16;;;10.50;100.00
39823;BME280;25499;53.958;10.970;2023-04-24T17:07:10;99962.28;;;10.56;100.00
39823;BME280;25499;53.958;10.970;2023-04-24T17:09:37;99960.56;;;10.55;100.00
39823;BME280;25499;53.958;10.970;2023-04-24T17:12:04;99963.34;;;10.42;100.00
39823;BME280;25499;53.958;10.970;2023-04-24T17:14:32;99965.94;;;10.44;100.00
39823;BME280;25499;53.958;10.970;2023-04-24T17:16:59;99970.22;;;10.47;100.00
39823;BME280;25499;53.958;10.970;2023-04-24T17:19:27;99967.84;;;10.33;100.00
39823;BME280;25499;53.958;10.970;2023-04-24T17:21:54;99969.59;;;10.32;100.00
39823;BME280;25499;53.958;10.970;2023-04-24T17:24:23;99975.94;;;10.08;100.00
39823;BME280;25499;53.958;10.970;2023-04-24T17:26:50;99985.25;;;10.26;100.00
39823;BME280;25499;53.958;10.970;2023-04-24T17:29:16;99986.97;;;10.27;100.00
39823;BME280;25499;53.958;10.970;2023-04-24T17:31:43;99987.06;;;10.19;100.00
39823;BME280;25499;53.958;10.970;2023-04-24T17:34:11;99987.91;;;10.21;100.00
39823;BME280;25499;53.958;10.970;2023-04-24T17:36:39;99988.88;;;10.13;100.00
39823;BME280;25499;53.958;10.970;2023-04-24T17:39:05;99983.72;;;10.09;100.00
39823;BME280;25499;53.958;10.970;2023-04-24T17:41:34;99985.59;;;10.01;100.00
39823;BME280;25499;53.958;10.970;2023-04-24T17:44:02;99983.97;;;9.91;100.00
39823;BME280;25499;53.958;10.970;2023-04-24T17:46:29;100003.03;;;9.92;100.00
39823;BME280;25499;53.958;10.970;2023-04-24T17:48:56;99994.44;;;9.88;100.00
39823;BME280;25499;53.958;10.970;2023-04-24T17:51:23;99996.22;;;9.83;100.00
39823;BME280;25499;53.958;10.970;2023-04-24T17:53:52;99990.22;;;9.78;97.80
39823;BME280;25499;53.958;10.970;2023-04-24T17:56:18;99988.66;;;9.64;95.96
39823;BME280;25499;53.958;10.970;2023-04-24T17:58:46;99991.25;;;9.63;94.84
39823;BME280;25499;53.958;10.970;2023-04-24T18:01:14;100007.72;;;9.60;96.37
39823;BME280;25499;53.958;10.970;2023-04-24T18:03:40;99995.72;;;9.51;95.86
39823;BME280;25499;53.958;10.970;2023-04-24T18:06:08;100000.28;;;9.29;94.71
39823;BME280;25499;53.958;10.970;2023-04-24T18:08:36;100009.94;;;9.17;94.26
39823;BME280;25499;53.958;10.970;2023-04-24T18:11:04;100003.06;;;9.08;94.75
39823;BME280;25499;53.958;10.970;2023-04-24T18:13:32;100013.47;;;9.08;95.14
39823;BME280;25499;53.958;10.970;2023-04-24T18:15:58;100014.38;;;9.01;95.02
39823;BME280;25499;53.958;10.970;2023-04-24T18:18:25;100009.19;;;9.01;94.16
39823;BME280;25499;53.958;10.970;2023-04-24T18:20:52;100023.00;;;9.07;94.75
39823;BME280;25499;53.958;10.970;2023-04-24T18:23:19;100035.09;;;9.10;95.60